Time;durP1;ratioP1;P1;durP2;ratioP2;P2;SDS_P1;SDS_P2;PMS_P1;PMS_P2;Temp;Humidity;BMP_temperature;BMP_pressure;BME280_temperature;BME280_humidity;BME280_pressure;Samples;Min_cycle;Max_cycle;Signal;HPM_P1;HPM_P2
2022/04/25 00:01:16;;;;;;;11.48;6.50;;;8.80;96.80;;;;;;5054229;28;20236;-60
2022/04/25 00:03:45;;;;;;;10.35;6.75;;;8.70;96.80;;;;;;5053803;28;20225;-61
2022/04/25 00:06:13;;;;;;;8.65;6.30;;;8.70;96.90;;;;;;5054420;28;20202;-60
2022/04/25 00:08:40;;;;;;;12.30;6.10;;;8.70;97.10;;;;;;5053859;28;20221;-61
2022/04/25 00:11:07;;;;;;;9.57;5.88;;;8.70;96.90;;;;;;5053630;28;20198;-59
2022/04/25 00:13:34;;;;;;;7.75;6.35;;;8.70;96.90;;;;;;5062148;28;20313;-61
2022/04/25 00:16:02;;;;;;;10.48;7.47;;;8.60;97.10;;;;;;5065179;28;20206;-60
2022/04/25 00:18:29;;;;;;;7.13;5.90;;;8.60;97.20;;;;;;5062385;28;20202;-60
2022/04/25 00:20:59;;;;;;;7.68;5.88;;;8.60;97.30;;;;;;5069375;28;20227;-60
2022/04/25 00:23:27;;;;;;;8.77;5.90;;;8.50;97.40;;;;;;5070372;28;20218;-60
2022/04/25 00:25:54;;;;;;;8.13;6.05;;;8.40;97.60;;;;;;5072402;28;20214;-59
2022/04/25 00:28:21;;;;;;;10.48;6.72;;;8.40;97.80;;;;;;5074962;28;20224;-60
2022/04/25 00:30:48;;;;;;;9.13;6.35;;;8.40;98.00;;;;;;5071104;28;20677;-59
2022/04/25 00:33:15;;;;;;;8.75;6.00;;;8.40;98.20;;;;;;5067748;28;20229;-59
2022/04/25 00:35:43;;;;;;;11.30;6.45;;;8.40;98.00;;;;;;5065680;28;20685;-60
2022/04/25 00:38:11;;;;;;;11.25;5.85;;;8.40;98.10;;;;;;5062950;28;20201;-60
2022/04/25 00:40:39;;;;;;;8.57;6.20;;;8.40;98.00;;;;;;5065306;28;20202;-59
2022/04/25 00:43:06;;;;;;;8.52;6.40;;;8.40;97.90;;;;;;5064100;28;20248;-59
2022/04/25 00:45:34;;;;;;;11.93;5.90;;;8.40;98.00;;;;;;5062682;28;20208;-60
2022/04/25 00:48:02;;;;;;;7.20;6.50;;;8.30;98.20;;;;;;5063765;28;20201;-60
2022/04/25 00:50:29;;;;;;;9.07;7.03;;;8.20;98.60;;;;;;5063580;28;20205;-60
2022/04/25 00:52:57;;;;;;;8.93;6.32;;;8.20;98.90;;;;;;5061676;28;20649;-59
2022/04/25 00:55:25;;;;;;;9.93;6.10;;;8.10;99.00;;;;;;5061679;28;20225;-60
2022/04/25 00:57:54;;;;;;;8.73;6.90;;;8.10;99.10;;;;;;5064117;28;20201;-60
2022/04/25 01:00:21;;;;;;;15.20;7.20;;;8.10;99.30;;;;;;5062679;28;20202;-60
2022/04/25 01:02:49;;;;;;;8.57;6.35;;;8.10;99.40;;;;;;5061651;28;20309;-60
2022/04/25 01:05:16;;;;;;;10.70;7.28;;;8.00;99.70;;;;;;5060924;28;20653;-61
2022/04/25 01:07:43;;;;;;;8.10;6.80;;;8.00;99.90;;;;;;5062586;28;20206;-60
2022/04/25 01:10:12;;;;;;;9.52;7.38;;;7.90;99.90;;;;;;5061731;28;20197;-60
2022/04/25 01:12:40;;;;;;;10.35;6.85;;;7.90;99.90;;;;;;5059351;28;20221;-60
2022/04/25 01:15:09;;;;;;;11.02;6.97;;;7.90;99.90;;;;;;5057120;28;20586;-60
2022/04/25 01:17:37;;;;;;;9.27;6.20;;;8.00;99.90;;;;;;5057441;28;20198;-59
2022/04/25 01:20:06;;;;;;;10.65;7.50;;;8.00;99.90;;;;;;5056776;28;20202;-59
2022/04/25 01:22:36;;;;;;;9.45;6.95;;;8.00;99.90;;;;;;5056235;28;20225;-59
2022/04/25 01:27:50;;;;;;;8.13;6.72;;;8.00;99.90;;;;;;5056518;28;20660;-60
2022/04/25 01:30:17;;;;;;;15.60;7.32;;;8.00;99.90;;;;;;5056378;28;20201;-60
2022/04/25 01:32:44;;;;;;;11.13;7.30;;;8.00;99.90;;;;;;5056009;28;20225;-60
2022/04/25 01:35:11;;;;;;;14.18;7.30;;;8.00;99.90;;;;;;5056140;28;20222;-60
2022/04/25 01:37:38;;;;;;;8.93;6.80;;;8.00;99.90;;;;;;5055994;28;20206;-60
2022/04/25 01:40:07;;;;;;;8.65;5.85;;;8.00;99.90;;;;;;5057001;28;20213;-60
2022/04/25 01:42:35;;;;;;;9.68;6.75;;;8.00;99.90;;;;;;5059682;28;20254;-60
2022/04/25 01:45:02;;;;;;;9.38;6.80;;;8.00;99.90;;;;;;5063167;28;20716;-60
2022/04/25 01:47:29;;;;;;;11.23;7.57;;;7.90;99.90;;;;;;5062098;28;20218;-59
2022/04/25 01:49:56;;;;;;;13.68;7.10;;;7.90;99.90;;;;;;5060497;28;20205;-60
2022/04/25 01:52:31;;;;;;;11.02;7.80;;;7.90;99.90;;;;;;5056973;28;20230;-60
2022/04/25 01:54:59;;;;;;;11.48;7.20;;;7.80;99.90;;;;;;5056368;28;20217;-60
2022/04/25 01:57:28;;;;;;;12.45;7.18;;;7.80;99.90;;;;;;5056230;28;20202;-60
2022/04/25 01:59:55;;;;;;;10.55;7.38;;;7.70;99.90;;;;;;5055624;28;20217;-59
2022/04/25 02:02:23;;;;;;;8.52;6.97;;;7.70;99.90;;;;;;5055733;28;20224;-60
2022/04/25 02:04:50;;;;;;;9.30;7.47;;;7.70;99.90;;;;;;5055295;28;20229;-59
2022/04/25 02:07:18;;;;;;;11.52;8.10;;;7.70;99.90;;;;;;5055746;28;20577;-60
2022/04/25 02:09:45;;;;;;;11.70;8.20;;;7.70;99.90;;;;;;5055632;28;20224;-60
2022/04/25 02:12:12;;;;;;;8.98;7.35;;;7.70;99.90;;;;;;5055327;28;20222;-60
2022/04/25 02:14:42;;;;;;;13.30;8.60;;;7.70;99.90;;;;;;5055472;28;20229;-60
2022/04/25 02:17:10;;;;;;;13.13;8.73;;;7.70;99.90;;;;;;5055009;28;20751;-59
2022/04/25 02:19:39;;;;;;;10.80;7.88;;;7.70;99.90;;;;;;5054993;28;20682;-59
2022/04/25 02:22:07;;;;;;;10.05;7.18;;;7.70;99.90;;;;;;5055171;28;20249;-60
2022/04/25 02:24:34;;;;;;;12.35;8.30;;;7.70;99.90;;;;;;5055018;28;20228;-58
2022/04/25 02:27:03;;;;;;;14.25;8.73;;;7.70;99.90;;;;;;5056621;28;20657;-59
2022/04/25 02:29:31;;;;;;;12.35;8.60;;;7.70;99.90;;;;;;5055051;28;20236;-60
2022/04/25 02:32:01;;;;;;;10.43;6.63;;;7.70;99.90;;;;;;5054859;28;20681;-58
2022/04/25 02:34:29;;;;;;;12.40;7.65;;;7.70;99.90;;;;;;5055230;28;20271;-60
2022/04/25 02:36:57;;;;;;;10.05;8.13;;;7.70;99.90;;;;;;5054849;28;20213;-60
2022/04/25 02:39:24;;;;;;;11.77;8.00;;;7.70;99.90;;;;;;5055454;28;20201;-59
2022/04/25 02:41:52;;;;;;;13.55;8.00;;;7.70;99.90;;;;;;5054755;28;20740;-60
2022/04/25 02:44:20;;;;;;;12.35;7.50;;;7.70;99.90;;;;;;5054771;28;20206;-59
2022/04/25 02:46:47;;;;;;;15.52;8.73;;;7.70;99.90;;;;;;5055000;28;20201;-59
2022/04/25 02:49:15;;;;;;;17.05;8.00;;;7.70;99.90;;;;;;5053337;28;20650;-58
2022/04/25 02:51:43;;;;;;;13.23;8.02;;;7.70;99.90;;;;;;5054433;28;20713;-59
2022/04/25 02:54:11;;;;;;;11.05;7.88;;;7.60;99.90;;;;;;5054744;28;20243;-60
2022/04/25 02:56:38;;;;;;;11.93;9.13;;;7.60;99.90;;;;;;5054891;28;20209;-60
2022/04/25 02:59:06;;;;;;;11.02;8.07;;;7.60;99.90;;;;;;5054869;28;20202;-59
2022/04/25 03:01:34;;;;;;;11.80;7.70;;;7.60;99.90;;;;;;5055051;28;20294;-59
2022/04/25 03:04:01;;;;;;;9.18;7.65;;;7.60;99.90;;;;;;5054432;28;20222;-60
2022/04/25 03:06:29;;;;;;;9.50;8.02;;;7.60;99.90;;;;;;5067378;28;20288;-59
2022/04/25 03:08:57;;;;;;;12.95;8.70;;;7.60;99.90;;;;;;5069446;28;20213;-59
2022/04/25 03:11:25;;;;;;;10.93;8.07;;;7.50;99.90;;;;;;5069659;28;20205;-59
2022/04/25 03:13:53;;;;;;;10.32;7.47;;;7.50;99.90;;;;;;5069188;28;20226;-59
2022/04/25 03:16:21;;;;;;;9.73;8.48;;;7.50;99.90;;;;;;5057858;28;20261;-60
2022/04/25 03:18:49;;;;;;;13.88;8.45;;;7.50;99.90;;;;;;5056020;28;20202;-60
2022/04/25 03:21:16;;;;;;;9.70;8.13;;;7.50;99.90;;;;;;5055714;28;20252;-59
2022/04/25 03:23:44;;;;;;;9.45;7.40;;;7.40;99.90;;;;;;5056431;28;20236;-60
2022/04/25 03:26:11;;;;;;;10.02;7.05;;;7.50;99.90;;;;;;5056213;28;20209;-58
2022/04/25 03:28:38;;;;;;;13.32;8.75;;;7.50;99.90;;;;;;5056024;28;20209;-59
2022/04/25 03:31:09;;;;;;;12.50;8.10;;;7.50;99.90;;;;;;5056062;28;20198;-58
2022/04/25 03:33:36;;;;;;;11.35;8.20;;;7.40;99.90;;;;;;5055472;28;20274;-60
2022/04/25 03:36:03;;;;;;;10.77;7.95;;;7.40;99.90;;;;;;5056530;28;20236;-59
2022/04/25 03:38:30;;;;;;;9.15;8.00;;;7.40;99.90;;;;;;5056870;28;20209;-59
2022/04/25 03:40:59;;;;;;;11.25;7.68;;;7.40;99.90;;;;;;5055871;28;20209;-59
2022/04/25 03:43:26;;;;;;;9.65;7.65;;;7.40;99.90;;;;;;5054863;28;20229;-60
2022/04/25 03:45:55;;;;;;;9.98;7.80;;;7.40;99.90;;;;;;5057192;28;20209;-59
2022/04/25 03:48:22;;;;;;;10.85;8.35;;;7.40;99.90;;;;;;5057056;28;20206;-60
2022/04/25 03:50:49;;;;;;;8.73;7.82;;;7.40;99.90;;;;;;5057318;28;20206;-59
2022/04/25 03:53:16;;;;;;;11.32;8.35;;;7.40;99.90;;;;;;5088226;22;20228;-54
2022/04/25 03:58:30;;;;;;;10.00;8.10;;;7.30;99.90;;;;;;5073553;28;20203;-55
2022/04/25 04:00:57;;;;;;;10.40;7.72;;;7.30;99.90;;;;;;5077425;28;20239;-55
2022/04/25 04:03:25;;;;;;;9.60;7.95;;;7.30;99.90;;;;;;5076556;28;20224;-55
2022/04/25 04:05:53;;;;;;;10.80;8.50;;;7.30;99.90;;;;;;5078009;28;20200;-55
2022/04/25 04:09:47;;;;;;;8.80;7.40;;;7.30;99.90;;;;;;5175164;27;20594;-55
2022/04/25 04:12:15;;;;;;;9.13;7.28;;;7.30;99.90;;;;;;5162669;27;20189;-56
2022/04/25 04:14:42;;;;;;;9.20;7.68;;;7.20;99.90;;;;;;5157222;27;20205;-55
2022/04/25 04:17:09;;;;;;;12.50;8.38;;;7.30;99.90;;;;;;5157534;27;20655;-53
2022/04/25 04:19:38;;;;;;;10.43;7.93;;;7.20;99.90;;;;;;5158412;27;20202;-54
2022/04/25 04:22:06;;;;;;;9.52;7.90;;;7.20;99.90;;;;;;5158762;27;20300;-53
2022/04/25 04:24:34;;;;;;;10.38;8.27;;;7.20;99.90;;;;;;5159651;27;20214;-54
2022/04/25 04:27:03;;;;;;;8.38;7.47;;;7.20;99.90;;;;;;5160095;27;20576;-54
2022/04/25 04:29:31;;;;;;;10.32;9.23;;;7.20;99.90;;;;;;5157723;27;20218;-53
2022/04/25 04:31:58;;;;;;;11.50;8.55;;;7.20;99.90;;;;;;5154970;27;20576;-54
2022/04/25 04:34:25;;;;;;;11.10;9.73;;;7.20;99.90;;;;;;5151727;27;20254;-53
2022/04/25 04:36:52;;;;;;;11.35;9.30;;;7.30;99.90;;;;;;5151699;27;20202;-55
2022/04/25 04:39:19;;;;;;;12.50;9.13;;;7.20;99.90;;;;;;5151439;27;20195;-55
2022/04/25 04:41:47;;;;;;;10.23;9.00;;;7.20;99.90;;;;;;5151234;27;20198;-55
2022/04/25 04:44:15;;;;;;;10.93;8.90;;;7.20;99.90;;;;;;5151183;27;20226;-54
2022/04/25 04:46:42;;;;;;;11.40;9.57;;;7.20;99.90;;;;;;5151254;27;20199;-54
2022/04/25 04:49:10;;;;;;;11.30;8.80;;;7.20;99.90;;;;;;5151576;27;20218;-54
2022/04/25 04:51:37;;;;;;;10.60;8.95;;;7.20;99.90;;;;;;5151002;27;20203;-55
2022/04/25 04:54:04;;;;;;;11.75;9.23;;;7.30;99.90;;;;;;5151107;27;20222;-55
2022/04/25 04:56:31;;;;;;;13.30;9.30;;;7.30;99.90;;;;;;5151322;27;20206;-55
2022/04/25 04:58:59;;;;;;;14.80;9.52;;;7.30;99.90;;;;;;5150836;27;20666;-53
2022/04/25 05:01:28;;;;;;;11.43;8.90;;;7.30;99.90;;;;;;5151099;27;20230;-55
2022/04/25 05:03:58;;;;;;;10.05;7.93;;;7.30;99.90;;;;;;5150704;27;20219;-55
2022/04/25 05:06:25;;;;;;;12.10;9.40;;;7.30;99.90;;;;;;5150589;27;20248;-55
2022/04/25 05:08:52;;;;;;;12.30;8.48;;;7.40;99.90;;;;;;5150436;27;20218;-56
2022/04/25 05:11:19;;;;;;;11.45;8.50;;;7.40;99.90;;;;;;5150974;27;20221;-57
2022/04/25 05:13:46;;;;;;;10.40;7.20;;;7.40;99.90;;;;;;5150541;27;20218;-55
2022/04/25 05:16:14;;;;;;;9.73;7.57;;;7.30;99.90;;;;;;5150533;27;20570;-54
2022/04/25 05:18:44;;;;;;;11.85;7.60;;;7.30;99.90;;;;;;5150579;27;20202;-55
2022/04/25 05:21:13;;;;;;;8.63;6.97;;;7.30;99.90;;;;;;5136472;27;20229;-54
2022/04/25 05:23:41;;;;;;;8.00;6.40;;;7.30;99.90;;;;;;5137795;27;20258;-54
2022/04/25 05:26:09;;;;;;;9.05;7.07;;;7.30;99.90;;;;;;5137220;27;20206;-55
2022/04/25 05:28:36;;;;;;;9.05;6.43;;;7.30;99.90;;;;;;5136904;27;20250;-54
2022/04/25 05:31:03;;;;;;;7.45;6.75;;;7.30;99.90;;;;;;5137010;27;20210;-55
2022/04/25 05:33:30;;;;;;;7.70;6.90;;;7.30;99.90;;;;;;5136796;27;20241;-54
2022/04/25 05:35:59;;;;;;;9.45;6.60;;;7.40;99.90;;;;;;5137047;27;20206;-55
2022/04/25 05:38:26;;;;;;;9.88;6.78;;;7.40;99.90;;;;;;5136907;27;20191;-55
2022/04/25 05:40:53;;;;;;;7.72;6.93;;;7.40;99.90;;;;;;5137350;27;20206;-55
2022/04/25 05:43:20;;;;;;;9.27;7.45;;;7.40;99.90;;;;;;5136552;27;20219;-55
2022/04/25 05:45:48;;;;;;;9.63;7.32;;;7.50;99.90;;;;;;5136728;27;20199;-54
2022/04/25 05:54:00;;;;;;;10.82;8.55;;;7.40;99.90;;;;;;5093292;28;20224;-55
2022/04/25 05:56:27;;;;;;;9.52;8.27;;;7.30;99.90;;;;;;5092972;28;20211;-56
2022/04/25 05:58:54;;;;;;;11.35;8.07;;;7.30;99.90;;;;;;5112244;27;20202;-54
2022/04/25 06:01:21;;;;;;;10.43;8.35;;;7.30;99.90;;;;;;5136445;27;20214;-54
2022/04/25 06:03:48;;;;;;;13.05;9.00;;;7.30;99.90;;;;;;5135774;27;20223;-55
2022/04/25 06:06:20;;;;;;;10.10;8.18;;;7.30;99.90;;;;;;5136691;27;20198;-54
2022/04/25 06:08:48;;;;;;;10.85;8.23;;;7.30;99.90;;;;;;5135543;27;20223;-54
2022/04/25 06:11:15;;;;;;;9.00;8.10;;;7.40;99.90;;;;;;5135983;27;20237;-54
2022/04/25 06:13:44;;;;;;;10.00;8.05;;;7.40;99.90;;;;;;5135633;27;20264;-56
2022/04/25 06:16:12;;;;;;;12.20;9.63;;;7.50;99.90;;;;;;5135559;27;20727;-56
2022/04/25 06:18:39;;;;;;;9.48;8.13;;;7.60;99.90;;;;;;5135511;27;20198;-56
2022/04/25 06:21:06;;;;;;;8.80;7.90;;;7.60;99.90;;;;;;5135604;27;20225;-54
2022/04/25 06:23:35;;;;;;;11.00;8.85;;;7.70;99.90;;;;;;5135499;27;20245;-55
2022/04/25 06:26:02;;;;;;;10.52;7.80;;;7.60;99.90;;;;;;5135424;27;20203;-53
2022/04/25 06:28:29;;;;;;;11.18;8.73;;;7.70;99.90;;;;;;5135237;27;20219;-53
2022/04/25 06:30:56;;;;;;;8.82;7.93;;;7.60;99.90;;;;;;5134623;27;20240;-54
2022/04/25 06:33:23;;;;;;;9.05;8.13;;;7.60;99.90;;;;;;5134943;27;20226;-54
2022/04/25 06:35:50;;;;;;;13.70;9.18;;;7.50;99.90;;;;;;5135397;27;20610;-52
2022/04/25 06:38:18;;;;;;;13.38;8.60;;;7.50;99.90;;;;;;5135387;27;20252;-54
2022/04/25 06:40:47;;;;;;;9.05;8.15;;;7.50;99.90;;;;;;5135195;27;20234;-54
2022/04/25 06:43:14;;;;;;;11.02;9.45;;;7.40;99.90;;;;;;5135527;27;20231;-54
2022/04/25 06:45:42;;;;;;;9.20;8.30;;;7.40;99.90;;;;;;5135025;27;20713;-53
2022/04/25 06:48:09;;;;;;;8.57;7.78;;;7.40;99.90;;;;;;5134392;27;20203;-54
2022/04/25 06:50:36;;;;;;;10.55;9.55;;;7.40;99.90;;;;;;5135344;27;20198;-54
2022/04/25 06:53:03;;;;;;;10.52;8.80;;;7.30;99.90;;;;;;5135309;27;20245;-54
2022/04/25 06:55:30;;;;;;;9.98;8.98;;;7.30;99.90;;;;;;5134896;27;20230;-54
2022/04/25 06:58:00;;;;;;;10.68;8.85;;;7.40;99.90;;;;;;5134822;27;20568;-54
2022/04/25 07:00:27;;;;;;;10.70;8.82;;;7.40;99.90;;;;;;5134853;27;20294;-55
2022/04/25 07:02:55;;;;;;;10.50;8.75;;;7.50;99.90;;;;;;5136336;27;20223;-56
2022/04/25 07:05:22;;;;;;;10.63;8.73;;;7.50;99.90;;;;;;5136625;27;20584;-55
2022/04/25 07:07:49;;;;;;;11.52;9.23;;;7.50;99.90;;;;;;5134968;27;20207;-54
2022/04/25 07:10:16;;;;;;;10.55;7.95;;;7.50;99.90;;;;;;5135098;27;20207;-55
2022/04/25 07:12:44;;;;;;;9.88;8.25;;;7.60;99.90;;;;;;5134701;27;20250;-55
2022/04/25 07:15:13;;;;;;;9.40;8.50;;;7.60;99.90;;;;;;5134523;27;20250;-55
2022/04/25 07:17:40;;;;;;;11.65;9.40;;;7.70;99.90;;;;;;5134795;27;20195;-55
2022/04/25 07:20:08;;;;;;;10.45;8.77;;;7.80;99.90;;;;;;5134771;27;20226;-55
2022/04/25 07:30:49;;;;;;;12.10;8.35;;;8.10;99.90;;;;;;5134104;27;20202;-55
2022/04/25 07:33:16;;;;;;;10.93;7.35;;;8.10;99.90;;;;;;5133902;27;20215;-56
2022/04/25 07:35:43;;;;;;;10.52;7.93;;;8.10;99.90;;;;;;5134213;27;20202;-55
2022/04/25 07:38:10;;;;;;;9.68;8.20;;;8.10;99.90;;;;;;5133888;27;20199;-56
2022/04/25 07:40:38;;;;;;;10.60;7.85;;;8.10;99.90;;;;;;5133843;27;20199;-55
2022/04/25 07:43:05;;;;;;;11.55;8.38;;;8.10;99.90;;;;;;5134492;27;20226;-55
2022/04/25 07:45:32;;;;;;;10.20;8.00;;;8.10;99.90;;;;;;5135460;27;20210;-55
2022/04/25 07:48:01;;;;;;;9.82;7.78;;;8.00;99.90;;;;;;5135960;27;20194;-55
2022/04/25 07:50:28;;;;;;;13.30;8.23;;;8.00;99.90;;;;;;5134802;27;20222;-55
2022/04/25 07:52:55;;;;;;;11.10;9.38;;;7.90;99.90;;;;;;5134536;27;20535;-55
2022/04/25 07:55:22;;;;;;;13.27;9.00;;;7.80;99.90;;;;;;5136501;27;20206;-56
2022/04/25 07:57:49;;;;;;;15.93;9.63;;;7.80;99.90;;;;;;5135064;27;20233;-54
2022/04/25 08:00:16;;;;;;;11.70;9.05;;;7.80;99.90;;;;;;5134288;27;20199;-55
2022/04/25 08:02:43;;;;;;;11.82;9.52;;;7.90;99.90;;;;;;5133926;27;20308;-55
2022/04/25 08:05:11;;;;;;;12.95;8.98;;;7.90;99.90;;;;;;5133965;27;20214;-55
2022/04/25 08:07:39;;;;;;;13.95;9.30;;;7.90;99.90;;;;;;5134903;28;20211;-54
2022/04/25 08:10:06;;;;;;;11.30;8.93;;;7.90;99.90;;;;;;5134981;28;20234;-56
2022/04/25 08:18:04;;;;;;;9.20;7.97;;;8.10;99.90;;;;;;5133787;28;20182;-55
2022/04/25 08:20:35;;;;;;;8.90;7.72;;;8.30;99.90;;;;;;5133617;28;20293;-55
2022/04/25 08:23:04;;;;;;;12.48;7.95;;;8.50;99.90;;;;;;5133418;28;20596;-55
2022/04/25 08:25:31;;;;;;;9.73;8.20;;;8.60;99.90;;;;;;5136480;28;20221;-55
2022/04/25 08:27:59;;;;;;;10.15;7.50;;;8.60;99.90;;;;;;5138900;28;20580;-55
2022/04/25 08:30:26;;;;;;;10.43;8.18;;;8.60;99.90;;;;;;5138238;28;20218;-56
2022/04/25 08:32:55;;;;;;;9.45;8.20;;;8.60;99.90;;;;;;5137334;28;20329;-55
2022/04/25 08:35:22;;;;;;;8.98;8.07;;;8.70;99.90;;;;;;5135852;27;20221;-55
2022/04/25 08:37:52;;;;;;;8.90;7.95;;;8.70;99.90;;;;;;5134228;28;20199;-56
2022/04/25 08:40:19;;;;;;;7.95;7.10;;;8.80;99.90;;;;;;5133644;27;20199;-56
2022/04/25 08:42:46;;;;;;;8.88;7.15;;;8.90;99.90;;;;;;5133351;27;20228;-56
2022/04/25 08:45:14;;;;;;;9.98;7.30;;;9.00;99.90;;;;;;5133449;27;20226;-56
2022/04/25 08:47:47;;;;;;;11.63;7.45;;;9.20;99.90;;;;;;5133872;28;20201;-55
2022/04/25 08:50:17;;;;;;;10.15;7.72;;;9.40;99.90;;;;;;5134149;27;20207;-57
2022/04/25 08:52:45;;;;;;;10.57;8.77;;;9.50;99.90;;;;;;5133131;28;20233;-56
2022/04/25 08:55:16;;;;;;;9.98;7.95;;;9.60;99.90;;;;;;5135680;27;20215;-55
2022/04/25 08:57:44;;;;;;;12.07;10.03;;;9.70;99.90;;;;;;5138046;27;20184;-57
2022/04/25 09:00:13;;;;;;;12.48;10.35;;;9.80;99.90;;;;;;5137962;27;20440;-55
2022/04/25 09:02:40;;;;;;;12.65;8.95;;;9.80;99.90;;;;;;5138126;27;20223;-56
2022/04/25 09:05:08;;;;;;;13.32;9.18;;;9.60;99.90;;;;;;5137964;27;20195;-56
2022/04/25 09:07:37;;;;;;;12.57;9.43;;;9.50;99.90;;;;;;5137741;27;20608;-56
2022/04/25 09:10:08;;;;;;;12.93;10.47;;;9.40;99.90;;;;;;5137675;27;20234;-56
2022/04/25 09:12:37;;;;;;;9.47;8.00;;;9.50;99.90;;;;;;5137721;27;20471;-56
2022/04/25 09:15:05;;;;;;;11.50;8.90;;;9.60;99.90;;;;;;5137885;27;20444;-56
2022/04/25 09:17:32;;;;;;;12.15;9.23;;;9.60;99.90;;;;;;5136947;27;20445;-56
2022/04/25 09:20:00;;;;;;;12.57;8.75;;;9.50;99.90;;;;;;5136580;27;20913;-55
2022/04/25 09:22:32;;;;;;;11.83;8.80;;;9.60;99.90;;;;;;5137147;27;20203;-54
2022/04/25 09:25:10;;;;;;;11.93;7.88;;;9.70;99.90;;;;;;5136926;27;20484;-55
2022/04/25 09:27:39;;;;;;;9.45;8.13;;;9.70;99.90;;;;;;5137061;27;20187;-55
2022/04/25 09:30:20;;;;;;;11.07;8.10;;;9.70;99.90;;;;;;5136792;27;20675;-53
2022/04/25 09:32:48;;;;;;;8.60;7.50;;;9.70;99.90;;;;;;5136539;27;20472;-54
2022/04/25 09:35:30;;;;;;;8.95;7.40;;;9.80;99.90;;;;;;5136581;27;20203;-55
2022/04/25 09:37:58;;;;;;;8.30;7.30;;;9.90;99.90;;;;;;5136942;27;20198;-54
2022/04/25 09:40:28;;;;;;;9.73;8.60;;;9.90;99.90;;;;;;5137448;27;20447;-55
2022/04/25 09:43:08;;;;;;;8.83;7.90;;;10.00;99.90;;;;;;5137356;27;20470;-56
2022/04/25 09:45:40;;;;;;;10.80;9.00;;;10.10;99.90;;;;;;5138070;27;20425;-55
2022/04/25 09:48:11;;;;;;;10.00;9.00;;;10.10;99.90;;;;;;5137472;27;20437;-55
2022/04/25 09:50:39;;;;;;;12.03;10.80;;;10.10;99.90;;;;;;5136628;27;20461;-56
2022/04/25 09:53:08;;;;;;;12.23;10.50;;;10.10;99.90;;;;;;5150527;22;20487;-62
2022/04/25 09:55:37;;;;;;;14.13;9.70;;;10.00;99.90;;;;;;5075384;28;20467;-63
2022/04/25 09:58:23;;;;;;;11.00;8.97;;;9.90;99.90;;;;;;5077116;28;20954;-63
2022/04/25 10:00:53;;;;;;;11.57;9.83;;;9.70;99.90;;;;;;5080865;28;20428;-62
2022/04/25 10:03:33;;;;;;;10.23;8.75;;;9.60;99.90;;;;;;5079195;28;20561;-63
2022/04/25 10:06:03;;;;;;;13.57;9.93;;;9.50;99.90;;;;;;5076766;28;20567;-61
2022/04/25 10:08:34;;;;;;;10.57;8.82;;;9.50;99.90;;;;;;5077050;28;20208;-62
2022/04/25 10:11:03;;;;;;;8.93;7.63;;;9.50;99.90;;;;;;5075209;28;20221;-61
2022/04/25 10:13:33;;;;;;;11.00;9.85;;;9.50;99.90;;;;;;5074757;28;20229;-60
2022/04/25 10:16:01;;;;;;;12.07;10.00;;;9.40;99.90;;;;;;5075766;28;20204;-61
2022/04/25 10:18:30;;;;;;;10.32;9.20;;;9.40;99.90;;;;;;5075085;28;20231;-61
2022/04/25 10:20:58;;;;;;;9.98;8.95;;;9.50;99.90;;;;;;5074719;28;20757;-59
2022/04/25 10:23:25;;;;;;;9.38;7.93;;;9.60;99.90;;;;;;5074051;28;20217;-61
2022/04/25 10:25:54;;;;;;;11.33;8.87;;;9.60;99.90;;;;;;5074499;28;20205;-61
2022/04/25 10:28:28;;;;;;;9.85;8.82;;;9.60;99.90;;;;;;5074145;28;20451;-61
2022/04/25 10:31:09;;;;;;;11.70;9.20;;;9.70;99.90;;;;;;5074905;28;20251;-61
2022/04/25 10:33:50;;;;;;;9.50;7.77;;;9.90;99.90;;;;;;5074552;28;20221;-61
2022/04/25 10:36:43;;;;;;;10.32;9.23;;;10.00;99.90;;;;;;5074299;28;20447;-59
2022/04/25 10:39:15;;;;;;;10.83;9.73;;;10.10;99.90;;;;;;5074628;28;20207;-61
2022/04/25 10:44:56;;;;;;;10.40;8.53;;;10.20;99.90;;;;;;5074498;28;20933;-62
2022/04/25 10:47:25;;;;;;;12.37;9.03;;;10.40;99.90;;;;;;5075212;28;20424;-62
2022/04/25 10:50:11;;;;;;;13.03;9.40;;;10.50;99.90;;;;;;5074202;28;20510;-62
2022/04/25 10:52:55;;;;;;;10.80;9.33;;;10.60;99.70;;;;;;5074413;28;20920;-62
2022/04/25 10:55:26;;;;;;;11.30;8.43;;;10.80;99.10;;;;;;5074444;28;20521;-61
2022/04/25 10:58:20;;;;;;;11.33;8.50;;;11.00;98.90;;;;;;5074343;28;20429;-61
2022/04/25 11:00:57;;;;;;;11.63;8.90;;;11.20;97.70;;;;;;5075058;28;20422;-61
2022/04/25 11:03:31;;;;;;;10.83;9.20;;;11.30;96.90;;;;;;5074009;28;20466;-60
2022/04/25 11:06:01;;;;;;;12.77;8.57;;;11.40;96.10;;;;;;5074228;28;20800;-61
2022/04/25 11:08:49;;;;;;;10.40;8.33;;;11.30;95.40;;;;;;5074055;28;20457;-62
2022/04/25 11:11:22;;;;;;;10.50;8.20;;;11.20;96.00;;;;;;5074071;28;20468;-62
2022/04/25 11:14:17;;;;;;;10.70;8.80;;;11.20;95.80;;;;;;5073878;28;20545;-61
2022/04/25 11:17:12;;;;;;;11.80;8.47;;;11.30;95.80;;;;;;5074641;28;20459;-62
2022/04/25 11:19:46;;;;;;;14.17;9.20;;;11.40;95.00;;;;;;5074399;28;20508;-61
2022/04/25 11:22:29;;;;;;;9.43;8.43;;;11.40;94.40;;;;;;5086247;28;20437;-62
2022/04/25 11:24:56;;;;;;;10.47;9.43;;;11.40;94.10;;;;;;5073826;28;20843;-62
2022/04/25 11:27:23;;;;;;;11.80;10.37;;;11.40;94.10;;;;;;5087862;28;20488;-62
2022/04/25 11:30:14;;;;;;;13.47;10.60;;;11.30;93.90;;;;;;5084687;28;21000;-61
2022/04/25 11:32:43;;;;;;;12.90;9.77;;;11.40;94.20;;;;;;5078326;28;20431;-61
2022/04/25 11:35:13;;;;;;;15.53;9.20;;;11.50;93.90;;;;;;5073687;28;20441;-61
2022/04/25 11:37:40;;;;;;;10.57;9.10;;;11.60;93.60;;;;;;5074089;28;20515;-61
2022/04/25 11:40:09;;;;;;;11.23;9.37;;;11.80;92.90;;;;;;5073196;28;20941;-61
2022/04/25 11:42:38;;;;;;;11.67;8.90;;;12.10;92.60;;;;;;5073085;28;20480;-60
2022/04/25 11:45:07;;;;;;;10.70;8.10;;;12.30;91.50;;;;;;5073005;28;20446;-61
2022/04/25 11:47:34;;;;;;;8.97;7.47;;;12.50;90.40;;;;;;5072998;28;20796;-60
2022/04/25 11:50:03;;;;;;;11.30;8.47;;;12.50;89.40;;;;;;5072966;28;20502;-63
2022/04/25 11:52:31;;;;;;;9.23;7.67;;;12.60;89.30;;;;;;5073151;28;20542;-63
2022/04/25 11:54:59;;;;;;;7.47;6.77;;;12.60;87.40;;;;;;5073275;28;20986;-63
2022/04/25 11:57:27;;;;;;;7.87;7.13;;;12.60;87.00;;;;;;5073002;28;20455;-61
2022/04/25 12:00:08;;;;;;;8.30;7.30;;;12.60;87.00;;;;;;5073228;28;20451;-62
2022/04/25 12:02:37;;;;;;;10.53;8.10;;;12.70;86.50;;;;;;5073262;28;20443;-64
2022/04/25 12:05:07;;;;;;;8.50;7.67;;;12.70;86.10;;;;;;5073583;28;20447;-61
2022/04/25 12:07:36;;;;;;;9.37;8.40;;;12.80;85.90;;;;;;5074383;28;20446;-62
2022/04/25 12:15:40;;;;;;;7.70;6.83;;;13.20;83.40;;;;;;5072967;28;20778;-62
2022/04/25 12:18:15;;;;;;;9.20;7.53;;;13.40;82.60;;;;;;5072837;28;20440;-63
2022/04/25 12:20:43;;;;;;;12.87;8.37;;;13.50;80.60;;;;;;5073101;28;20452;-59
2022/04/25 12:23:21;;;;;;;9.87;8.10;;;13.50;79.90;;;;;;5072987;28;20531;-61
2022/04/25 12:25:49;;;;;;;10.57;7.80;;;13.40;80.10;;;;;;5072980;28;20431;-62
2022/04/25 12:28:18;;;;;;;11.70;8.53;;;13.40;80.30;;;;;;5073186;28;20518;-62
2022/04/25 12:30:51;;;;;;;10.53;7.83;;;13.50;80.00;;;;;;5075652;28;20486;-63
2022/04/25 12:33:20;;;;;;;9.70;7.80;;;13.60;79.50;;;;;;5076479;28;20470;-61
2022/04/25 12:35:49;;;;;;;9.30;8.30;;;13.70;78.80;;;;;;5076575;28;20470;-62
2022/04/25 12:38:46;;;;;;;8.77;7.93;;;13.80;78.00;;;;;;5076800;28;20447;-61
2022/04/25 12:41:22;;;;;;;9.83;7.43;;;13.80;77.20;;;;;;5031102;28;20454;-62
2022/04/25 12:43:53;;;;;;;8.57;7.60;;;13.80;77.10;;;;;;5077460;28;20516;-62
2022/04/25 12:46:36;;;;;;;8.33;7.50;;;13.80;76.50;;;;;;5077133;28;20492;-62
2022/04/25 12:49:05;;;;;;;8.40;7.67;;;13.50;76.50;;;;;;5078164;28;20903;-61
2022/04/25 12:51:38;;;;;;;10.43;8.87;;;13.30;77.70;;;;;;5077897;28;20485;-62
2022/04/25 12:54:20;;;;;;;9.13;8.17;;;13.30;78.30;;;;;;5077472;28;20483;-61
2022/04/25 12:56:47;;;;;;;9.47;8.03;;;13.20;78.10;;;;;;5077751;28;20853;-61
2022/04/25 12:59:24;;;;;;;11.20;8.87;;;13.10;78.60;;;;;;5076825;28;20530;-60
2022/04/25 13:02:01;;;;;;;9.53;8.63;;;13.00;78.90;;;;;;5076656;28;20537;-60
2022/04/25 13:04:29;;;;;;;16.90;9.70;;;13.00;79.00;;;;;;5076367;28;20474;-62
2022/04/25 13:06:56;;;;;;;10.73;9.20;;;13.00;79.10;;;;;;5076286;28;20435;-61
2022/04/25 13:09:25;;;;;;;9.50;8.47;;;12.90;79.10;;;;;;5075925;28;20446;-61
2022/04/25 13:11:52;;;;;;;12.40;9.30;;;13.00;79.50;;;;;;5075897;28;20481;-61
2022/04/25 13:14:19;;;;;;;9.67;8.70;;;13.10;79.60;;;;;;5075714;28;20479;-60
2022/04/25 13:16:46;;;;;;;10.40;8.47;;;13.10;79.20;;;;;;5075343;28;20541;-61
2022/04/25 13:19:13;;;;;;;11.23;8.83;;;13.10;78.60;;;;;;5075355;28;20877;-61
2022/04/25 13:21:42;;;;;;;9.53;8.63;;;13.10;78.50;;;;;;5075955;28;20443;-59
2022/04/25 13:24:09;;;;;;;11.17;8.17;;;13.10;78.90;;;;;;5075478;28;20986;-61
2022/04/25 13:26:38;;;;;;;9.97;8.97;;;13.20;78.50;;;;;;5078135;28;20443;-61
2022/04/25 13:29:05;;;;;;;9.20;8.20;;;13.30;77.80;;;;;;5076500;28;20805;-60
2022/04/25 13:31:32;;;;;;;9.60;8.53;;;13.50;76.80;;;;;;5074874;28;20486;-60
2022/04/25 13:34:00;;;;;;;13.00;9.60;;;13.70;76.00;;;;;;5074807;28;20504;-58